TimeCST,TemperatureF,Dew PointF,Humidity,Sea Level PressureIn,VisibilityMPH,Wind Direction,Wind SpeedMPH,Gust SpeedMPH,PrecipitationIn,Events,Conditions,WindDirDegrees,DateUTC
12:15 AM,17.6,15.8,93,29.77,7.0,Calm,Calm,-,N/A,,Clear,0,2013-01-27 06:15:00
12:35 AM,19.4,17.6,93,29.77,8.0,ESE,3.5,-,N/A,,Clear,120,2013-01-27 06:35:00
12:55 AM,17.6,17.6,100,29.77,7.0,SE,3.5,-,N/A,,Clear,130,2013-01-27 06:55:00
1:15 AM,17.6,15.8,93,29.76,7.0,Calm,Calm,-,N/A,,Clear,0,2013-01-27 07:15:00
1:35 AM,19.4,17.6,93,29.74,7.0,ESE,9.2,-,N/A,,Clear,110,2013-01-27 07:35:00
1:55 AM,19.4,19.4,100,29.73,7.0,ESE,15.0,-,N/A,,Clear,110,2013-01-27 07:55:00
2:15 AM,19.4,19.4,100,29.72,7.0,ESE,15.0,-,N/A,,Clear,120,2013-01-27 08:15:00
2:35 AM,19.4,19.4,100,29.73,8.0,ESE,6.9,-,N/A,,Clear,120,2013-01-27 08:35:00
2:55 AM,19.4,17.6,93,29.72,8.0,East,6.9,-,N/A,,Clear,80,2013-01-27 08:55:00
3:15 AM,21.2,19.4,93,29.72,8.0,East,8.1,-,N/A,,Clear,100,2013-01-27 09:15:00
3:35 AM,19.4,17.6,93,29.71,8.0,ENE,5.8,-,N/A,,Clear,70,2013-01-27 09:35:00
3:55 AM,19.4,17.6,93,29.70,8.0,East,8.1,-,N/A,,Clear,100,2013-01-27 09:55:00
4:15 AM,19.4,17.6,93,29.69,9.0,NE,6.9,-,N/A,,Clear,40,2013-01-27 10:15:00
4:35 AM,17.6,15.8,93,29.70,9.0,NNW,4.6,-,N/A,,Clear,340,2013-01-27 10:35:00
4:55 AM,17.6,15.8,93,29.69,9.0,NE,4.6,-,N/A,,Clear,40,2013-01-27 10:55:00
5:15 AM,17.6,15.8,93,29.69,9.0,ENE,4.6,-,N/A,,Clear,70,2013-01-27 11:15:00
5:35 AM,15.8,15.8,100,29.69,9.0,ENE,4.6,-,N/A,,Clear,70,2013-01-27 11:35:00
5:55 AM,15.8,14.0,93,29.69,9.0,NNE,5.8,-,N/A,,Clear,30,2013-01-27 11:55:00
6:15 AM,15.8,14.0,93,29.69,9.0,NNE,3.5,-,N/A,,Clear,30,2013-01-27 12:15:00
6:35 AM,15.8,14.0,93,29.68,8.0,NNE,5.8,-,N/A,,Clear,30,2013-01-27 12:35:00
6:55 AM,14.0,12.2,93,29.69,8.0,North,3.5,-,N/A,,Clear,350,2013-01-27 12:55:00
7:15 AM,12.2,10.4,92,29.70,8.0,Calm,Calm,-,N/A,,Clear,0,2013-01-27 13:15:00
7:35 AM,12.2,10.4,92,29.69,8.0,East,6.9,-,N/A,,Clear,100,2013-01-27 13:35:00
7:55 AM,12.2,10.4,92,29.70,8.0,NW,3.5,-,N/A,,Clear,310,2013-01-27 13:55:00
8:15 AM,10.4,8.6,92,29.70,6.0,Calm,Calm,-,N/A,,Clear,0,2013-01-27 14:15:00
8:35 AM,10.4,10.4,100,29.70,5.0,Calm,Calm,-,N/A,,Clear,0,2013-01-27 14:35:00
8:55 AM,14.0,12.2,93,29.69,6.0,East,6.9,-,N/A,,Scattered Clouds,100,2013-01-27 14:55:00
9:15 AM,15.8,14.0,93,29.71,6.0,Calm,Calm,-,N/A,,Scattered Clouds,0,2013-01-27 15:15:00
9:35 AM,17.6,15.8,93,29.70,7.0,SE,4.6,-,N/A,,Scattered Clouds,130,2013-01-27 15:35:00
9:55 AM,17.6,15.8,93,29.71,7.0,Calm,Calm,-,N/A,,Partly Cloudy,0,2013-01-27 15:55:00
10:15 AM,15.8,14.0,93,29.73,7.0,NNW,3.5,-,N/A,,Clear,330,2013-01-27 16:15:00
10:35 AM,17.6,15.8,93,29.73,7.0,NE,3.5,-,N/A,,Partly Cloudy,40,2013-01-27 16:35:00
10:55 AM,19.4,15.8,86,29.73,7.0,Calm,Calm,-,N/A,,Partly Cloudy,0,2013-01-27 16:55:00
11:15 AM,19.4,17.6,93,29.72,8.0,North,3.5,-,N/A,,Partly Cloudy,360,2013-01-27 17:15:00
11:35 AM,23.0,17.6,80,29.72,8.0,Calm,Calm,-,N/A,,Clear,0,2013-01-27 17:35:00
11:55 AM,23.0,17.6,80,29.71,8.0,ESE,3.5,-,N/A,,Clear,120,2013-01-27 17:55:00
12:15 PM,24.8,19.4,80,29.72,8.0,West,3.5,-,N/A,,Clear,260,2013-01-27 18:15:00
12:35 PM,24.8,19.4,80,29.71,8.0,West,8.1,-,N/A,,Clear,270,2013-01-27 18:35:00
12:55 PM,24.8,19.4,80,29.70,8.0,NW,5.8,-,N/A,,Clear,310,2013-01-27 18:55:00
1:15 PM,24.8,19.4,80,29.70,7.0,WNW,3.5,-,N/A,,Clear,290,2013-01-27 19:15:00
1:35 PM,24.8,21.2,86,29.70,7.0,NW,8.1,-,N/A,,Clear,310,2013-01-27 19:35:00
1:55 PM,24.8,21.2,86,29.69,7.0,WNW,6.9,-,N/A,,Clear,290,2013-01-27 19:55:00
2:15 PM,24.8,21.2,86,29.69,7.0,WNW,6.9,-,N/A,,Partly Cloudy,300,2013-01-27 20:15:00
2:35 PM,24.8,21.2,86,29.70,7.0,West,10.4,-,N/A,Rain,Freezing Rain,280,2013-01-27 20:35:00
2:55 PM,24.8,21.2,86,29.71,7.0,WSW,10.4,-,N/A,Rain,Freezing Rain,250,2013-01-27 20:55:00
3:15 PM,24.8,19.4,80,29.71,7.0,West,11.5,16.1,N/A,Rain,Freezing Rain,270,2013-01-27 21:15:00
3:35 PM,26.6,23.0,86,29.71,7.0,West,8.1,-,N/A,Rain,Freezing Rain,280,2013-01-27 21:35:00
3:55 PM,26.6,23.0,86,29.70,8.0,NW,8.1,-,N/A,Rain,Freezing Rain,310,2013-01-27 21:55:00
4:15 PM,26.6,23.0,86,29.71,5.0,WNW,9.2,-,N/A,Rain,Freezing Rain,300,2013-01-27 22:15:00
4:35 PM,26.6,24.8,93,29.71,4.0,WNW,8.1,-,N/A,Snow,Light Snow,300,2013-01-27 22:35:00
4:55 PM,26.6,24.8,93,29.71,5.0,WNW,8.1,-,N/A,,Overcast,300,2013-01-27 22:55:00
5:15 PM,26.6,24.8,93,29.72,5.0,WNW,3.5,-,N/A,,Overcast,290,2013-01-27 23:15:00
5:35 PM,26.6,24.8,93,29.72,4.0,West,6.9,-,N/A,Snow,Light Snow,280,2013-01-27 23:35:00
5:55 PM,26.6,24.8,93,29.73,2.5,West,4.6,-,0.01,Snow,Light Snow,270,2013-01-27 23:55:00
6:15 PM,26.6,24.8,93,29.73,5.0,NW,4.6,-,N/A,Snow,Light Snow,310,2013-01-28 00:15:00
6:35 PM,26.6,24.8,93,29.74,3.0,NW,4.6,-,N/A,Snow,Light Snow,320,2013-01-28 00:35:00
6:55 PM,26.6,24.8,93,29.74,1.8,Calm,Calm,-,0.09,Snow,Light Snow,0,2013-01-28 00:55:00
7:15 PM,26.6,24.8,93,29.73,3.0,Calm,Calm,-,0.01,Snow,Light Snow,0,2013-01-28 01:15:00
7:35 PM,26.6,24.8,93,29.73,4.0,WSW,3.5,-,0.02,Snow,Light Snow,250,2013-01-28 01:35:00
7:55 PM,26.6,24.8,93,29.73,4.0,West,3.5,-,0.02,,Overcast,270,2013-01-28 01:55:00
8:15 PM,26.6,24.8,93,29.74,5.0,SW,5.8,-,N/A,,Overcast,230,2013-01-28 02:15:00
8:35 PM,26.6,26.6,100,29.73,5.0,SW,3.5,-,N/A,,Overcast,230,2013-01-28 02:35:00
8:55 PM,26.6,26.6,100,29.72,5.0,Calm,Calm,-,N/A,,Overcast,0,2013-01-28 02:55:00
9:15 PM,26.6,26.6,100,29.73,5.0,West,4.6,-,N/A,,Overcast,260,2013-01-28 03:15:00
9:35 PM,26.6,26.6,100,29.74,3.0,WSW,8.1,-,N/A,Snow,Light Snow,240,2013-01-28 03:35:00
10:15 PM,28.4,26.6,93,29.75,1.2,WSW,6.9,-,0.06,Snow,Light Snow,250,2013-01-28 04:15:00
10:35 PM,28.4,28.4,100,29.75,0.8,WSW,6.9,-,0.52,Snow,Light Snow,240,2013-01-28 04:35:00
10:55 PM,28.4,28.4,100,29.74,1.0,WSW,6.9,-,0.82,Snow,Light Snow,240,2013-01-28 04:55:00
11:15 PM,28.4,28.4,100,29.73,1.5,Calm,Calm,-,0.21,Snow,Light Snow,0,2013-01-28 05:15:00
11:35 PM,28.4,28.4,100,29.73,4.0,Calm,Calm,-,0.24,Snow,Light Snow,0,2013-01-28 05:35:00
11:55 PM,28.4,28.4,100,29.72,5.0,NNW,3.5,-,0.24,Snow,Light Snow,340,2013-01-28 05:55:00